createdAt,value
2023-06-17T00:00:11.052Z,61.67
2023-06-17T00:04:13.107Z,56.17
2023-06-17T00:08:15.183Z,65.10
2023-06-17T00:12:17.908Z,63.80
2023-06-17T00:16:22.183Z,48.35
2023-06-17T00:20:24.867Z,60.78
2023-06-17T00:24:27.311Z,49.53
2023-06-17T00:28:29.611Z,55.15
2023-06-17T00:32:32.071Z,55.13
2023-06-17T00:36:34.327Z,53.22
2023-06-17T00:40:36.585Z,57.85
2023-06-17T00:44:41.216Z,65.40
2023-06-17T00:48:43.642Z,60.60
2023-06-17T00:52:47.037Z,65.50
2023-06-17T00:56:49.459Z,64.70
2023-06-17T01:00:51.676Z,71.07
2023-06-17T01:04:59.193Z,78.68
2023-06-17T01:09:14.631Z,81.65
2023-06-17T01:13:19.545Z,77.00
2023-06-17T01:17:22.541Z,88.65
2023-06-17T01:21:29.778Z,85.43
2023-06-17T01:25:33.047Z,91.40
2023-06-17T01:29:39.351Z,90.55
2023-06-17T01:33:46.916Z,79.45
2023-06-17T01:37:55.643Z,70.57
2023-06-17T01:42:00.968Z,76.80
2023-06-17T01:46:05.752Z,68.10
2023-06-17T01:50:08.842Z,59.05
2023-06-17T01:54:11.803Z,60.67
2023-06-17T01:58:13.934Z,43.03
2023-06-17T02:02:16.383Z,46.65
2023-06-17T02:06:18.755Z,51.30
2023-06-17T02:10:23.833Z,45.25
2023-06-17T02:14:27.410Z,55.05
2023-06-17T02:18:29.593Z,48.72
2023-06-17T02:22:31.799Z,56.75
2023-06-17T02:26:33.989Z,50.63
2023-06-17T02:30:38.630Z,44.13
2023-06-17T02:34:43.800Z,45.92
2023-06-17T02:38:46.403Z,45.92
2023-06-17T02:42:48.581Z,44.13
2023-06-17T02:46:51.720Z,46.13
2023-06-17T02:50:56.067Z,49.10
2023-06-17T02:54:58.447Z,48.67
2023-06-17T02:59:01.806Z,50.95
2023-06-17T03:03:04.498Z,53.38
2023-06-17T03:07:07.642Z,56.03
2023-06-17T03:11:10.407Z,64.75
2023-06-17T03:15:18.817Z,61.35
2023-06-17T03:19:21.658Z,65.35
2023-06-17T03:23:24.720Z,69.72
2023-06-17T03:27:28.639Z,80.03
2023-06-17T03:31:31.614Z,75.18
2023-06-17T03:35:34.885Z,75.43
2023-06-17T03:39:38.270Z,80.78
2023-06-17T03:43:41.324Z,81.05
2023-06-17T03:47:43.687Z,76.10
2023-06-17T03:51:46.151Z,83.70
2023-06-17T03:55:49.379Z,71.38
2023-06-17T03:59:52.092Z,79.22
2023-06-17T04:03:54.596Z,72.25
2023-06-17T04:08:00.730Z,71.40
2023-06-17T04:12:03.939Z,68.93
2023-06-17T04:16:06.259Z,60.10
2023-06-17T04:20:13.511Z,67.97
2023-06-17T04:24:15.945Z,65.07
2023-06-17T04:28:19.129Z,66.90
2023-06-17T04:32:22.753Z,67.60
2023-06-17T04:36:24.901Z,57.58
2023-06-17T04:40:29.148Z,65.90
2023-06-17T04:44:32.703Z,57.85
2023-06-17T04:48:38.388Z,73.63
2023-06-17T04:52:45.296Z,77.57
2023-06-17T04:56:49.745Z,66.38
2023-06-17T05:00:55.295Z,74.75
2023-06-17T05:05:01.331Z,69.55
2023-06-17T05:09:03.779Z,70.43
2023-06-17T05:13:06.952Z,82.32
2023-06-17T05:17:10.226Z,75.60
2023-06-17T05:21:12.927Z,85.60
2023-06-17T05:25:15.406Z,89.65
2023-06-17T05:29:17.652Z,90.43
2023-06-17T05:33:21.095Z,84.13
2023-06-17T05:37:23.899Z,81.07
2023-06-17T05:41:26.749Z,80.88
2023-06-17T05:45:29.630Z,78.67
2023-06-17T05:49:32.450Z,79.85
2023-06-17T05:53:34.730Z,75.95
2023-06-17T05:57:38.217Z,68.90
2023-06-17T06:01:40.880Z,68.28
2023-06-17T06:05:43.175Z,68.85
2023-06-17T06:09:45.388Z,66.65
2023-06-17T06:13:48.252Z,60.90
2023-06-17T06:17:50.754Z,54.80
2023-06-17T06:21:52.850Z,50.25
2023-06-17T06:25:55.132Z,50.85
2023-06-17T06:29:57.847Z,48.33
2023-06-17T06:34:00.809Z,50.93
2023-06-17T06:38:03.215Z,42.97
2023-06-17T06:42:05.834Z,39.00
2023-06-17T06:46:28.939Z,29.95
2023-06-17T06:50:31.819Z,25.67
2023-06-17T06:54:34.366Z,28.15
2023-06-17T06:58:37.251Z,19.35
2023-06-17T07:02:39.522Z,15.30
2023-06-17T07:06:41.931Z,18.13
2023-06-17T07:10:49.778Z,12.80
2023-06-17T07:14:52.162Z,14.18
2023-06-17T07:18:54.361Z,15.02
2023-06-17T07:22:58.642Z,13.43
2023-06-17T07:27:01.828Z,16.85
2023-06-17T07:31:05.648Z,18.05
2023-06-17T07:35:08.380Z,19.40
2023-06-17T07:39:11.774Z,22.60
2023-06-17T07:43:14.187Z,27.83
2023-06-17T07:47:16.724Z,39.38
2023-06-17T07:51:18.861Z,42.42
2023-06-17T07:55:21.975Z,59.40
2023-06-17T07:59:24.084Z,65.77
2023-06-17T08:03:26.552Z,63.78
2023-06-17T08:07:28.829Z,77.28
2023-06-17T08:11:31.074Z,76.50
2023-06-17T08:15:33.598Z,79.60
2023-06-17T08:19:36.700Z,77.10
2023-06-17T08:23:40.078Z,79.10
2023-06-17T08:27:48.693Z,84.88
2023-06-17T08:31:52.757Z,72.88
2023-06-17T08:35:55.160Z,59.80
2023-06-17T08:39:58.030Z,51.73
2023-06-17T08:44:02.952Z,52.55
2023-06-17T08:48:06.959Z,56.63
2023-06-17T08:52:09.731Z,49.10
2023-06-17T08:56:13.685Z,45.53
2023-06-17T09:00:16.324Z,35.42
2023-06-17T09:04:21.398Z,31.15
2023-06-17T09:08:25.819Z,45.30
2023-06-17T09:12:37.008Z,34.45
2023-06-17T09:16:40.116Z,35.40
2023-06-17T09:20:42.597Z,42.33
2023-06-17T09:24:44.728Z,33.55
2023-06-17T09:28:47.008Z,38.10
2023-06-17T09:32:53.333Z,35.53
2023-06-17T09:37:02.330Z,25.30
2023-06-17T09:41:05.556Z,27.73
2023-06-17T09:45:12.970Z,27.25
2023-06-17T09:49:23.230Z,22.17
2023-06-17T09:53:30.986Z,22.02
2023-06-17T09:57:34.154Z,14.05
2023-06-17T10:01:40.847Z,16.27
2023-06-17T10:05:43.210Z,14.27
2023-06-17T10:09:45.712Z,20.48
2023-06-17T10:13:56.086Z,22.90
2023-06-17T10:17:59.029Z,27.50
2023-06-17T10:22:04.127Z,26.30
2023-06-17T10:26:12.243Z,27.90
2023-06-17T10:30:26.870Z,28.63
2023-06-17T10:34:29.043Z,27.80
2023-06-17T10:38:31.917Z,49.55
2023-06-17T10:42:34.250Z,55.00
2023-06-17T10:46:36.343Z,72.18
2023-06-17T10:50:38.700Z,70.72
2023-06-17T10:54:54.650Z,73.65
2023-06-17T10:58:57.224Z,72.97
2023-06-17T11:03:00.289Z,69.70
2023-06-17T11:07:06.123Z,68.10
2023-06-17T11:11:12.880Z,67.95
2023-06-17T11:15:15.565Z,69.25
2023-06-17T11:19:17.697Z,70.47
2023-06-17T11:23:20.294Z,79.43
2023-06-17T11:27:22.786Z,70.55
2023-06-17T11:31:27.348Z,67.15
2023-06-17T11:35:29.973Z,66.53
2023-06-17T11:39:32.389Z,47.50
2023-06-17T11:43:34.772Z,43.33
2023-06-17T11:47:37.845Z,33.10
2023-06-17T11:51:48.917Z,52.63
2023-06-17T11:55:51.062Z,64.45
2023-06-17T11:59:59.605Z,78.68
2023-06-17T12:04:02.354Z,58.40
2023-06-17T12:08:04.902Z,51.03
2023-06-17T12:12:11.827Z,35.17
2023-06-17T12:16:25.043Z,25.42
2023-06-17T12:20:27.888Z,22.80
2023-06-17T12:24:30.539Z,25.00
2023-06-17T12:28:33.862Z,26.60
2023-06-17T12:36:39.820Z,24.27
2023-06-17T12:40:42.145Z,27.52
2023-06-17T12:44:45.862Z,27.08
2023-06-17T12:48:49.217Z,34.13
2023-06-17T12:52:52.914Z,45.83
2023-06-17T12:56:55.025Z,41.70
2023-06-17T13:00:57.577Z,40.38
2023-06-17T13:04:59.992Z,43.53
2023-06-17T13:09:02.305Z,45.20
2023-06-17T13:13:04.551Z,48.20
2023-06-17T13:17:07.737Z,45.50
2023-06-17T13:21:10.410Z,41.55
2023-06-17T13:25:12.550Z,51.47
2023-06-17T13:29:15.612Z,52.33
2023-06-17T13:33:18.263Z,49.65
2023-06-17T13:37:20.755Z,49.28
2023-06-17T13:41:23.584Z,49.55
2023-06-17T13:45:26.033Z,40.95
2023-06-17T13:49:28.394Z,49.60
2023-06-17T13:53:32.545Z,41.90
2023-06-17T13:57:34.723Z,52.28
2023-06-17T14:01:36.892Z,43.47
2023-06-17T14:05:39.104Z,42.70
2023-06-17T14:09:41.363Z,35.30
2023-06-17T14:13:44.474Z,39.47
2023-06-17T14:17:47.106Z,44.47
2023-06-17T14:21:58.150Z,43.53
2023-06-17T14:26:00.685Z,42.03
2023-06-17T14:30:04.806Z,37.47
2023-06-17T14:34:08.039Z,32.60
2023-06-17T14:38:10.193Z,41.83
2023-06-17T14:42:13.100Z,38.13
2023-06-17T14:46:16.067Z,34.28
2023-06-17T14:50:18.355Z,33.55
2023-06-17T14:54:20.610Z,34.83
2023-06-17T14:58:22.793Z,30.65
2023-06-17T15:02:37.736Z,34.08
2023-06-17T15:06:40.936Z,39.53
2023-06-17T15:10:43.090Z,37.72
2023-06-17T15:14:45.271Z,43.43
2023-06-17T15:18:47.389Z,22.67
2023-06-17T15:22:49.694Z,13.17
2023-06-17T15:26:52.048Z,19.95
2023-06-17T15:30:54.273Z,17.73
2023-06-17T15:34:57.056Z,13.80
2023-06-17T15:39:02.808Z,11.38
2023-06-17T15:43:05.117Z,15.45
2023-06-17T15:47:07.415Z,16.85
2023-06-17T15:51:09.709Z,16.73
2023-06-17T15:55:11.900Z,25.02
2023-06-17T15:59:14.171Z,28.70
2023-06-17T16:03:37.040Z,41.90
2023-06-17T16:07:39.928Z,51.67
2023-06-17T16:11:42.081Z,51.38
2023-06-17T16:15:44.408Z,42.42
2023-06-17T16:23:48.920Z,32.92
2023-06-17T16:27:51.325Z,38.15
2023-06-17T16:31:53.461Z,39.90
2023-06-17T16:35:57.168Z,43.05
2023-06-17T16:39:59.308Z,47.05
2023-06-17T16:44:02.591Z,39.92
2023-06-17T16:48:06.218Z,42.13
2023-06-17T16:52:09.829Z,34.13
2023-06-17T16:56:12.173Z,34.63
2023-06-17T17:00:14.780Z,36.85
2023-06-17T17:04:17.070Z,37.50
2023-06-17T17:08:19.898Z,36.22
2023-06-17T17:12:22.466Z,49.05
2023-06-17T17:20:27.335Z,47.63
2023-06-17T17:28:32.212Z,45.20
2023-06-17T17:32:34.849Z,47.95
2023-06-17T17:40:39.581Z,22.70
2023-06-17T17:44:41.901Z,16.38
2023-06-17T17:48:44.040Z,15.38
2023-06-17T17:52:46.503Z,14.27
2023-06-17T17:56:48.663Z,15.75
2023-06-17T18:00:50.936Z,16.50
2023-06-17T18:04:53.186Z,17.73
2023-06-17T18:08:55.879Z,18.80
2023-06-17T18:12:58.066Z,19.35
2023-06-17T18:17:00.178Z,29.57
2023-06-17T18:21:02.268Z,36.93
2023-06-17T18:25:08.481Z,42.77
2023-06-17T18:29:10.784Z,51.28
2023-06-17T18:33:13.387Z,43.40
2023-06-17T18:37:15.757Z,40.58
2023-06-17T18:41:17.976Z,42.77
2023-06-17T18:45:20.414Z,54.20
2023-06-17T18:49:25.091Z,47.28
2023-06-17T18:53:27.426Z,32.95
2023-06-17T18:57:30.746Z,29.92
2023-06-17T19:01:33.608Z,34.75
2023-06-17T19:05:39.612Z,58.33
2023-06-17T19:09:41.868Z,84.78
2023-06-17T19:13:44.300Z,109.32
2023-06-17T19:17:46.497Z,112.47
2023-06-17T19:21:48.999Z,95.00
2023-06-17T19:25:51.367Z,79.63
2023-06-17T19:30:01.642Z,52.22
2023-06-17T19:34:04.216Z,36.53
2023-06-17T19:38:07.574Z,35.63
2023-06-17T19:42:09.789Z,32.35
2023-06-17T19:46:12.109Z,34.90
2023-06-17T19:50:16.367Z,28.92
2023-06-17T19:54:20.157Z,28.55
2023-06-17T19:58:23.076Z,30.30
2023-06-17T20:02:25.368Z,29.58
2023-06-17T20:06:27.504Z,40.10
2023-06-17T20:10:30.101Z,52.75
2023-06-17T20:14:32.488Z,67.85
2023-06-17T20:18:34.662Z,85.63
2023-06-17T20:22:36.803Z,113.07
2023-06-17T20:26:39.877Z,118.95
2023-06-17T20:30:42.181Z,114.05
2023-06-17T20:34:44.463Z,115.75
2023-06-17T20:38:47.311Z,107.78
2023-06-17T20:42:49.521Z,88.45
2023-06-17T20:46:53.797Z,84.53
2023-06-17T20:50:56.267Z,71.05
2023-06-17T20:54:58.481Z,76.00
2023-06-17T20:59:00.637Z,54.40
2023-06-17T21:03:03.570Z,55.80
2023-06-17T21:07:05.877Z,45.97
2023-06-17T21:11:08.676Z,37.65
2023-06-17T21:15:11.182Z,51.20
2023-06-17T21:19:13.358Z,41.03
2023-06-17T21:23:15.837Z,35.95
2023-06-17T21:27:18.070Z,36.22
2023-06-17T21:31:20.343Z,35.78
2023-06-17T21:35:22.666Z,34.15
2023-06-17T21:39:24.804Z,34.17
2023-06-17T21:43:28.010Z,34.45
2023-06-17T21:47:30.372Z,34.67
2023-06-17T21:51:32.790Z,37.40
2023-06-17T21:55:35.470Z,46.17
2023-06-17T21:59:37.647Z,42.92
2023-06-17T22:03:41.549Z,47.67
2023-06-17T22:07:43.851Z,45.83
2023-06-17T22:11:46.283Z,55.80
2023-06-17T22:15:48.405Z,51.92
2023-06-17T22:19:51.118Z,58.85
2023-06-17T22:23:53.281Z,56.78
2023-06-17T22:27:57.060Z,50.08
2023-06-17T22:31:59.144Z,61.65
2023-06-17T22:36:01.471Z,65.93
2023-06-17T22:40:06.700Z,70.65
2023-06-17T22:44:09.046Z,72.82
2023-06-17T22:48:11.642Z,75.30
2023-06-17T22:52:13.827Z,74.43
2023-06-17T22:56:17.134Z,85.53
2023-06-17T23:00:19.742Z,84.93
2023-06-17T23:04:22.216Z,90.78
2023-06-17T23:08:24.521Z,99.13
2023-06-17T23:12:26.682Z,97.65
2023-06-17T23:16:28.853Z,96.43
2023-06-17T23:20:31.001Z,109.22
2023-06-17T23:24:33.854Z,123.60
2023-06-17T23:28:36.035Z,121.50
2023-06-17T23:32:38.777Z,115.18
2023-06-17T23:36:41.719Z,117.85
2023-06-17T23:40:44.475Z,118.17
2023-06-17T23:44:49.012Z,115.47
2023-06-17T23:48:51.940Z,116.95
2023-06-17T23:52:54.733Z,116.72
2023-06-17T23:56:56.860Z,112.15
